Time;durP1;ratioP1;P1;durP2;ratioP2;P2;SDS_P1;SDS_P2;PMS_P1;PMS_P2;Temp;Humidity;BMP_temperature;BMP_pressure;BME280_temperature;BME280_humidity;BME280_pressure;Samples;Min_cycle;Max_cycle;Signal;HPM_P1;HPM_P2
2023/04/26 00:01:04;;;;;;;5.78;2.17;;;;;;;4.30;75.57;100802.56;4999829;28;20695;-76
2023/04/26 00:03:33;;;;;;;3.00;1.70;;;;;;;4.28;75.66;100799.19;4997172;28;20236;-75
2023/04/26 00:06:07;;;;;;;3.53;1.88;;;;;;;4.28;75.99;100810.75;5006591;28;20196;-75
2023/04/26 00:08:37;;;;;;;6.70;2.42;;;;;;;4.29;75.88;100800.88;4991068;28;20225;-74
2023/04/26 00:11:06;;;;;;;4.78;1.80;;;;;;;4.25;76.31;100802.22;5003672;28;20600;-77
2023/04/26 00:13:35;;;;;;;2.95;1.33;;;;;;;4.24;75.90;100801.38;4999150;28;20220;-75
2023/04/26 00:16:05;;;;;;;6.35;2.03;;;;;;;4.22;76.24;100797.16;5006401;28;20253;-76
2023/04/26 00:18:34;;;;;;;4.43;1.67;;;;;;;4.24;76.38;100803.22;4995304;28;20206;-76
2023/04/26 00:21:04;;;;;;;6.47;3.17;;;;;;;4.21;76.18;100803.53;5007124;28;20196;-76
2023/04/26 00:23:35;;;;;;;10.13;1.80;;;;;;;4.16;76.43;100805.88;5010957;28;20223;-75
2023/04/26 00:26:04;;;;;;;2.53;1.73;;;;;;;4.08;76.90;100805.81;4994016;28;20204;-75
2023/04/26 00:28:33;;;;;;;5.03;1.95;;;;;;;4.11;77.14;100806.34;5004764;28;20287;-75
2023/04/26 00:31:03;;;;;;;3.72;1.95;;;;;;;4.04;77.10;100801.78;4993387;28;20207;-77
2023/04/26 00:33:32;;;;;;;9.02;1.70;;;;;;;3.99;77.83;100813.00;4994956;28;20216;-76
2023/04/26 00:36:01;;;;;;;8.85;2.80;;;;;;;3.92;78.56;100815.47;5001869;28;20599;-75
2023/04/26 00:38:31;;;;;;;7.38;2.67;;;;;;;3.87;78.96;100808.94;4989838;28;20197;-75
2023/04/26 00:41:00;;;;;;;6.03;2.15;;;;;;;3.90;78.29;100806.78;4995137;28;20227;-74
2023/04/26 00:43:29;;;;;;;11.48;2.47;;;;;;;3.95;78.30;100817.00;4981148;28;20312;-74
2023/04/26 00:45:58;;;;;;;5.22;1.75;;;;;;;3.93;78.69;100806.44;4998376;28;20209;-75
2023/04/26 00:48:27;;;;;;;5.53;1.90;;;;;;;3.86;79.24;100810.78;4975907;28;20204;-76
2023/04/26 00:50:57;;;;;;;4.50;2.08;;;;;;;3.82;79.50;100813.94;4999265;28;20200;-75
2023/04/26 00:53:26;;;;;;;6.40;2.20;;;;;;;3.84;79.03;100807.41;4985741;28;20780;-75
2023/04/26 00:55:57;;;;;;;11.23;2.15;;;;;;;3.76;79.62;100804.72;4994605;28;20234;-76
2023/04/26 00:58:26;;;;;;;6.57;1.70;;;;;;;3.75;80.04;100812.88;4996353;28;20200;-76
2023/04/26 01:00:55;;;;;;;12.10;2.20;;;;;;;3.72;79.84;100808.72;4993125;28;20209;-76
2023/04/26 01:03:25;;;;;;;3.08;1.83;;;;;;;3.70;79.91;100810.69;4987466;28;20220;-76
2023/04/26 01:05:54;;;;;;;6.30;1.70;;;;;;;3.68;80.18;100818.03;5006788;28;20615;-76
2023/04/26 01:08:24;;;;;;;9.25;2.60;;;;;;;3.68;80.49;100823.38;4992985;28;20196;-76
2023/04/26 01:10:54;;;;;;;5.45;2.42;;;;;;;3.70;80.20;100816.06;4976758;28;20203;-76
2023/04/26 01:13:26;;;;;;;1.95;1.40;;;;;;;3.64;80.56;100814.00;5003023;28;20282;-76
2023/04/26 01:15:56;;;;;;;8.20;2.35;;;;;;;3.66;81.24;100812.03;4991878;28;20620;-76
2023/04/26 01:18:25;;;;;;;7.50;2.00;;;;;;;3.64;80.94;100824.69;4979527;28;20214;-76
2023/04/26 01:20:55;;;;;;;6.07;2.35;;;;;;;3.63;81.10;100823.03;4976834;28;20704;-76
2023/04/26 01:23:26;;;;;;;5.60;2.05;;;;;;;3.63;81.20;100820.34;4994581;28;20217;-75
2023/04/26 01:25:55;;;;;;;6.05;2.47;;;;;;;3.58;81.39;100824.53;5004165;28;20193;-75
2023/04/26 01:28:24;;;;;;;7.53;2.25;;;;;;;3.59;81.53;100821.66;4977515;28;20210;-76
2023/04/26 01:30:53;;;;;;;7.97;2.25;;;;;;;3.54;81.72;100818.63;4996247;28;20198;-75
2023/04/26 01:33:22;;;;;;;5.35;2.33;;;;;;;3.53;81.73;100825.00;4995152;28;20223;-75
2023/04/26 01:35:52;;;;;;;8.05;2.47;;;;;;;3.48;81.78;100824.63;4971616;28;20207;-76
2023/04/26 01:38:25;;;;;;;7.47;2.22;;;;;;;3.51;82.18;100835.00;4980993;28;20203;-77
2023/04/26 01:40:55;;;;;;;5.97;1.80;;;;;;;3.50;82.22;100841.34;4992932;28;20225;-75
2023/04/26 01:43:25;;;;;;;5.50;1.77;;;;;;;3.48;82.69;100846.03;4997142;28;20696;-75
2023/04/26 01:45:53;;;;;;;9.60;2.50;;;;;;;3.46;82.77;100842.66;4993094;28;20227;-75
2023/04/26 01:48:31;;;;;;;7.03;1.65;;;;;;;3.39;82.92;100838.94;4995960;28;20192;-76
2023/04/26 01:51:02;;;;;;;8.75;1.80;;;;;;;3.38;83.46;100842.63;4999724;28;20223;-75
2023/04/26 01:53:32;;;;;;;5.53;2.63;;;;;;;3.37;83.75;100832.91;4985333;28;20219;-76
2023/04/26 01:56:02;;;;;;;7.00;2.42;;;;;;;3.31;83.84;100847.75;4997409;28;20196;-75
2023/04/26 01:58:32;;;;;;;5.53;2.92;;;;;;;3.36;83.44;100845.44;4990040;28;20191;-75
2023/04/26 02:01:06;;;;;;;4.10;2.05;;;;;;;3.33;83.79;100835.06;4985963;28;20216;-75
2023/04/26 02:03:36;;;;;;;10.98;2.45;;;;;;;3.32;84.51;100837.88;4994046;28;20230;-75
2023/04/26 02:07:07;;;;;;;4.30;1.92;;;;;;;3.32;84.38;100835.22;4995195;28;20569;-75
2023/04/26 02:09:48;;;;;;;8.60;2.60;;;;;;;3.28;84.69;100839.22;4993415;28;20199;-76
2023/04/26 02:12:17;;;;;;;8.85;2.88;;;;;;;3.30;84.85;100835.38;5010782;28;20209;-75
2023/04/26 02:14:45;;;;;;;5.70;2.13;;;;;;;3.28;85.05;100837.38;5001811;28;20211;-75
2023/04/26 02:17:15;;;;;;;9.77;2.42;;;;;;;3.28;84.88;100836.53;4994829;28;20206;-76
2023/04/26 02:19:45;;;;;;;3.08;1.33;;;;;;;3.24;85.40;100846.72;4999226;28;20186;-75
2023/04/26 02:22:13;;;;;;;18.90;5.28;;;;;;;3.24;85.65;100841.38;4995707;28;20246;-76
2023/04/26 02:24:42;;;;;;;6.68;2.20;;;;;;;3.22;85.78;100842.50;4998915;28;20302;-76
2023/04/26 02:27:13;;;;;;;7.47;2.63;;;;;;;3.23;85.66;100845.03;4994512;28;20205;-75
2023/04/26 02:29:42;;;;;;;8.55;2.30;;;;;;;3.19;85.69;100843.66;5001492;28;20622;-76
2023/04/26 02:32:14;;;;;;;5.03;1.90;;;;;;;3.12;85.90;100837.25;5001154;28;20609;-75
2023/04/26 02:34:44;;;;;;;7.07;3.05;;;;;;;3.16;85.90;100833.25;5002543;28;20223;-76
2023/04/26 02:37:13;;;;;;;5.75;1.73;;;;;;;3.06;86.47;100833.34;5003414;28;20270;-76
2023/04/26 02:39:42;;;;;;;10.45;2.60;;;;;;;3.06;86.66;100838.69;5005693;28;20188;-76
2023/04/26 02:42:13;;;;;;;6.28;1.90;;;;;;;3.05;86.77;100834.34;4999439;28;20210;-76
2023/04/26 02:44:42;;;;;;;2.20;1.40;;;;;;;3.02;86.87;100829.31;4989185;28;20266;-76
2023/04/26 02:47:11;;;;;;;6.43;2.08;;;;;;;3.01;87.52;100834.81;4986461;28;20203;-75
2023/04/26 02:49:41;;;;;;;3.78;1.85;;;;;;;2.95;87.70;100832.78;4978473;28;20220;-75
2023/04/26 02:52:10;;;;;;;10.13;3.58;;;;;;;2.97;87.51;100834.28;4994174;28;20236;-75
2023/04/26 02:54:39;;;;;;;13.18;2.33;;;;;;;2.99;87.53;100834.97;5001236;28;20222;-75
2023/04/26 02:57:08;;;;;;;7.47;2.13;;;;;;;3.01;87.44;100830.31;4997422;28;20195;-75
2023/04/26 02:59:38;;;;;;;8.95;2.20;;;;;;;2.95;87.90;100836.25;5005496;28;20274;-76
2023/04/26 03:02:08;;;;;;;4.30;2.25;;;;;;;2.95;87.61;100836.25;5001399;28;20219;-75
2023/04/26 03:04:37;;;;;;;7.57;2.20;;;;;;;2.96;87.97;100835.28;5001565;28;20204;-76
2023/04/26 03:07:06;;;;;;;6.22;1.75;;;;;;;2.94;88.09;100834.59;4972727;28;20223;-75
2023/04/26 03:09:37;;;;;;;2.78;1.90;;;;;;;2.90;88.23;100835.91;4986103;28;20206;-76
2023/04/26 03:12:10;;;;;;;2.78;1.52;;;;;;;2.87;88.48;100832.69;4988977;28;20202;-76
2023/04/26 03:14:42;;;;;;;10.98;2.53;;;;;;;2.86;88.54;100834.50;4988975;28;20215;-75
2023/04/26 03:17:11;;;;;;;8.27;2.80;;;;;;;2.80;89.12;100837.81;4992939;28;20200;-75
2023/04/26 03:19:40;;;;;;;16.08;2.75;;;;;;;2.78;89.70;100844.31;4995413;28;20198;-76
2023/04/26 03:22:10;;;;;;;5.13;1.92;;;;;;;2.82;89.17;100841.16;4972173;28;20266;-75
2023/04/26 03:24:39;;;;;;;10.70;1.88;;;;;;;2.80;89.32;100845.84;5005599;28;20214;-75
2023/04/26 03:27:08;;;;;;;8.00;2.65;;;;;;;2.72;89.84;100840.41;5009297;28;20228;-75
2023/04/26 03:29:38;;;;;;;6.20;3.10;;;;;;;2.80;89.40;100843.16;4987340;28;20245;-76
2023/04/26 03:32:08;;;;;;;3.75;1.95;;;;;;;2.76;89.58;100844.44;5011534;28;20298;-76
2023/04/26 03:34:37;;;;;;;6.45;2.45;;;;;;;2.76;90.03;100849.78;4987827;28;20601;-75
2023/04/26 03:37:06;;;;;;;5.15;2.15;;;;;;;2.79;90.21;100852.19;5000966;28;20216;-75
2023/04/26 03:39:36;;;;;;;6.03;2.45;;;;;;;2.74;90.43;100854.47;4994790;28;20246;-74
2023/04/26 03:42:05;;;;;;;7.80;3.30;;;;;;;2.82;90.33;100857.19;4998720;28;20666;-76
2023/04/26 03:44:36;;;;;;;5.97;2.47;;;;;;;2.76;90.73;100852.47;5006680;28;20710;-76
2023/04/26 03:47:05;;;;;;;8.15;2.28;;;;;;;2.79;90.29;100854.84;5002592;28;20204;-75
2023/04/26 03:49:35;;;;;;;4.97;2.80;;;;;;;2.87;90.18;100854.91;4978617;28;20239;-74
2023/04/26 03:52:05;;;;;;;6.05;1.70;;;;;;;2.88;89.97;100856.59;4977691;28;20676;-75
2023/04/26 03:54:35;;;;;;;22.48;2.83;;;;;;;2.93;89.81;100858.81;4979816;28;20712;-75
2023/04/26 03:57:04;;;;;;;10.98;2.70;;;;;;;2.94;89.67;100861.34;4999118;28;20222;-76
2023/04/26 03:59:35;;;;;;;7.07;3.08;;;;;;;2.96;89.49;100863.84;4986464;28;20192;-75
2023/04/26 04:02:05;;;;;;;5.18;2.65;;;;;;;3.01;89.58;100862.38;4990205;28;20218;-74
2023/04/26 04:04:36;;;;;;;8.05;2.78;;;;;;;2.98;89.43;100868.06;4990088;28;20224;-76
2023/04/26 04:07:05;;;;;;;4.15;2.45;;;;;;;3.04;89.80;100861.25;5001758;28;20603;-76
2023/04/26 04:09:35;;;;;;;11.23;3.95;;;;;;;3.09;89.23;100863.47;4976778;28;20325;-76
2023/04/26 04:12:04;;;;;;;3.00;2.20;;;;;;;3.11;88.71;100862.28;4984025;28;20205;-76
2023/04/26 04:14:33;;;;;;;6.78;2.00;;;;;;;3.40;88.73;100870.03;4995653;28;20714;-76
2023/04/26 04:17:02;;;;;;;9.63;2.85;;;;;;;3.83;85.51;100869.13;4997794;28;20560;-76
2023/04/26 04:19:32;;;;;;;6.22;2.42;;;;;;;3.93;83.88;100865.34;4988529;28;20203;-75
2023/04/26 04:22:03;;;;;;;10.15;3.38;;;;;;;4.57;81.78;100873.78;4994106;28;20294;-76
2023/04/26 04:24:32;;;;;;;6.65;2.30;;;;;;;4.92;79.58;100867.31;4997202;28;20231;-75
2023/04/26 04:27:02;;;;;;;5.38;2.40;;;;;;;5.36;77.48;100871.34;4995257;28;20227;-75
2023/04/26 04:29:32;;;;;;;6.38;2.58;;;;;;;5.94;74.71;100871.09;4997714;28;20200;-76
2023/04/26 04:32:02;;;;;;;2.05;1.60;;;;;;;5.90;74.23;100874.31;4996108;28;20228;-76
2023/04/26 04:34:35;;;;;;;5.20;2.30;;;;;;;6.12;72.98;100881.59;4982159;28;20279;-76
2023/04/26 04:37:06;;;;;;;6.15;2.70;;;;;;;6.80;70.63;100883.63;5003428;28;20271;-75
2023/04/26 04:39:36;;;;;;;5.57;2.30;;;;;;;6.24;71.17;100884.75;5007067;28;20219;-75
2023/04/26 04:42:05;;;;;;;3.97;2.70;;;;;;;5.82;73.02;100882.31;5000862;28;20201;-75
2023/04/26 04:44:34;;;;;;;6.72;2.22;;;;;;;6.30;70.83;100881.34;4994301;28;20224;-76
2023/04/26 04:47:03;;;;;;;11.63;3.17;;;;;;;5.98;71.22;100882.31;4981397;28;20223;-75
2023/04/26 04:49:36;;;;;;;5.20;2.38;;;;;;;6.71;69.64;100892.75;4983862;28;20228;-75
2023/04/26 04:52:06;;;;;;;7.20;2.65;;;;;;;6.69;68.94;100894.75;4987214;28;20295;-76
2023/04/26 04:54:36;;;;;;;11.10;2.38;;;;;;;6.42;69.44;100890.72;4998812;28;20228;-75
2023/04/26 04:57:05;;;;;;;4.78;1.92;;;;;;;6.56;68.86;100884.59;5005332;28;20212;-74
2023/04/26 04:59:34;;;;;;;6.30;2.53;;;;;;;6.92;68.01;100892.97;5008144;28;20200;-76
2023/04/26 05:02:05;;;;;;;8.02;2.90;;;;;;;7.34;66.30;100896.00;4992485;28;20223;-75
2023/04/26 05:04:34;;;;;;;3.78;2.25;;;;;;;7.15;65.62;100904.56;5010369;28;20229;-74
2023/04/26 05:07:04;;;;;;;11.02;2.40;;;;;;;6.89;67.37;100898.69;5004940;28;20658;-75
2023/04/26 05:09:37;;;;;;;10.07;3.28;;;;;;;6.75;67.86;100902.97;4991742;28;20196;-75
2023/04/26 05:12:07;;;;;;;6.65;2.10;;;;;;;7.40;65.83;100914.13;4975191;28;20198;-76
2023/04/26 05:14:36;;;;;;;6.72;2.50;;;;;;;7.11;66.16;100908.63;4978856;28;20221;-75
2023/04/26 05:17:06;;;;;;;8.93;2.40;;;;;;;5.99;70.24;100917.09;4999422;28;20684;-76
2023/04/26 05:19:35;;;;;;;7.38;2.72;;;;;;;5.14;74.26;100907.72;4986977;28;20194;-74
2023/04/26 05:22:05;;;;;;;4.57;2.70;;;;;;;5.03;75.49;100917.97;5012164;28;20210;-75
2023/04/26 05:24:36;;;;;;;8.23;4.10;;;;;;;4.79;77.05;100916.88;4996992;28;20268;-75
2023/04/26 05:27:05;;;;;;;5.70;2.75;;;;;;;4.71;77.71;100929.44;4991674;28;20201;-75
2023/04/26 05:29:45;;;;;;;12.35;2.50;;;;;;;4.90;77.53;100928.31;5599786;23;20228;-69
2023/04/26 05:32:50;;;;;;;7.60;2.50;;;;;;;4.91;77.65;100924.63;5015517;28;20218;-73
2023/04/26 05:36:06;;;;;;;6.32;2.63;;;;;;;4.99;77.27;100928.16;5009896;28;20201;-71
2023/04/26 05:38:36;;;;;;;7.97;3.13;;;;;;;5.06;76.37;100928.34;4995446;28;20192;-72
2023/04/26 05:41:07;;;;;;;6.55;2.95;;;;;;;5.01;77.06;100931.53;5006197;28;20201;-71
2023/04/26 05:43:37;;;;;;;11.10;2.25;;;;;;;5.17;76.67;100930.72;4995001;28;20224;-71
2023/04/26 05:46:06;;;;;;;4.93;2.17;;;;;;;5.38;76.29;100933.72;4999298;28;20750;-72
2023/04/26 05:48:36;;;;;;;10.32;3.97;;;;;;;5.21;76.24;100937.41;5000303;28;20200;-74
2023/04/26 05:51:05;;;;;;;8.43;2.60;;;;;;;5.31;76.29;100929.19;4997348;28;20205;-73
2023/04/26 05:53:36;;;;;;;7.45;2.80;;;;;;;5.30;76.48;100938.25;5000416;28;20225;-70
2023/04/26 05:56:07;;;;;;;5.97;2.30;;;;;;;5.43;75.69;100942.09;4996635;28;20204;-73
2023/04/26 05:58:36;;;;;;;14.40;3.10;;;;;;;5.51;75.36;100934.06;5002741;28;20698;-72
2023/04/26 06:01:05;;;;;;;7.18;2.83;;;;;;;5.54;75.34;100938.25;4994991;28;20193;-72
2023/04/26 06:03:36;;;;;;;5.85;2.55;;;;;;;5.62;74.88;100931.03;4997906;28;20240;-73
2023/04/26 06:06:14;;;;;;;3.35;2.25;;;;;;;5.59;74.89;100943.97;5000599;28;20214;-71
2023/04/26 06:08:44;;;;;;;8.55;3.03;;;;;;;5.84;74.37;100945.63;4995192;28;20199;-72
2023/04/26 06:11:14;;;;;;;8.20;3.00;;;;;;;5.88;73.90;100951.50;4999658;28;20201;-73
2023/04/26 06:13:44;;;;;;;12.65;3.35;;;;;;;5.83;73.88;100951.16;5001706;28;20260;-73
2023/04/26 06:16:13;;;;;;;5.55;3.28;;;;;;;5.94;73.58;100951.69;4996223;28;20662;-73
2023/04/26 06:18:43;;;;;;;7.25;3.85;;;;;;;5.99;73.25;100949.31;4995778;28;20288;-72
2023/04/26 06:21:13;;;;;;;14.50;3.30;;;;;;;6.23;72.48;100951.09;4995454;28;20238;-70
2023/04/26 06:27:10;;;;;;;4.28;2.63;;;;;;;6.17;72.19;100957.16;4992863;28;20202;-74
2023/04/26 06:29:42;;;;;;;5.93;2.35;;;;;;;6.48;71.44;100946.47;4995467;28;20249;-71
2023/04/26 06:32:11;;;;;;;10.13;2.75;;;;;;;6.65;70.65;100949.91;4991596;28;20222;-72
2023/04/26 06:34:42;;;;;;;8.57;3.08;;;;;;;7.12;70.46;100949.81;4994819;28;20496;-72
2023/04/26 06:37:13;;;;;;;8.02;3.35;;;;;;;6.84;68.91;100947.63;5012449;28;20200;-72
2023/04/26 06:39:44;;;;;;;9.73;3.00;;;;;;;6.71;69.51;100954.59;5008835;28;20210;-74
2023/04/26 06:42:16;;;;;;;7.43;2.90;;;;;;;6.63;69.60;100958.19;5010023;28;20223;-73
2023/04/26 06:45:01;;;;;;;8.38;2.45;;;;;;;7.07;68.75;100961.09;4996478;28;20233;-72
2023/04/26 06:47:34;;;;;;;3.67;2.17;;;;;;;6.81;68.62;100961.44;4996566;28;20188;-72
2023/04/26 06:50:04;;;;;;;4.65;3.00;;;;;;;6.69;69.20;100962.00;4996587;28;20209;-72
2023/04/26 06:52:33;;;;;;;7.75;2.10;;;;;;;6.58;69.73;100957.03;4994732;28;20194;-71
2023/04/26 06:55:03;;;;;;;5.13;3.70;;;;;;;7.15;68.57;100963.78;4996344;28;20260;-73
2023/04/26 06:57:34;;;;;;;6.35;2.53;;;;;;;7.07;67.89;100963.00;4995134;28;20253;-72
2023/04/26 07:00:03;;;;;;;5.38;2.53;;;;;;;7.05;68.27;100963.16;4995517;28;20558;-72
2023/04/26 07:02:32;;;;;;;10.88;3.33;;;;;;;7.34;67.20;100960.59;4994335;28;20370;-72
2023/04/26 07:05:02;;;;;;;4.40;2.08;;;;;;;7.51;66.67;100958.59;4994969;28;20636;-72
2023/04/26 07:07:31;;;;;;;7.78;2.88;;;;;;;7.66;66.31;100958.66;4995364;28;20212;-72
2023/04/26 07:10:00;;;;;;;9.13;3.33;;;;;;;7.53;66.10;100961.13;4995448;28;20211;-73
2023/04/26 07:12:29;;;;;;;9.73;3.95;;;;;;;7.51;65.43;100963.16;4993287;28;20539;-69
2023/04/26 07:15:00;;;;;;;11.13;3.38;;;;;;;7.81;64.15;100964.91;4992887;28;20302;-69
2023/04/26 07:17:29;;;;;;;4.97;2.15;;;;;;;7.61;65.18;100977.22;4993489;28;20557;-70
2023/04/26 07:19:58;;;;;;;7.53;2.70;;;;;;;7.61;65.05;100961.06;4990108;28;20203;-71
2023/04/26 07:22:28;;;;;;;7.65;2.97;;;;;;;8.02;63.40;100961.53;4993588;28;20200;-71
2023/04/26 07:24:56;;;;;;;8.10;2.65;;;;;;;7.75;63.74;100979.94;4996386;28;20226;-71
2023/04/26 07:27:26;;;;;;;8.68;2.67;;;;;;;8.05;64.05;100975.47;4996536;28;20199;-72
2023/04/26 07:29:55;;;;;;;5.07;2.47;;;;;;;7.91;63.29;100973.59;4993677;28;20195;-72
2023/04/26 07:32:26;;;;;;;10.32;2.22;;;;;;;8.12;63.09;100968.34;4995621;28;20212;-72
2023/04/26 07:34:55;;;;;;;10.75;2.50;;;;;;;8.36;62.09;100977.22;4994037;28;20648;-71
2023/04/26 07:37:25;;;;;;;11.70;2.95;;;;;;;8.33;61.85;100977.59;4996000;28;20282;-73
2023/04/26 07:39:55;;;;;;;8.57;3.25;;;;;;;8.52;61.63;100975.13;4996862;28;20199;-72
2023/04/26 07:42:25;;;;;;;12.68;3.33;;;;;;;8.59;60.76;100980.63;4993347;28;20263;-75
2023/04/26 07:44:55;;;;;;;9.95;2.47;;;;;;;8.36;60.51;100974.50;4996208;28;20244;-72
2023/04/26 07:47:32;;;;;;;10.05;2.85;;;;;;;8.48;59.12;100979.25;4996896;28;20666;-73
2023/04/26 07:50:07;;;;;;;3.90;1.67;;;;;;;8.38;59.69;100985.94;4991884;28;20231;-71
2023/04/26 07:52:36;;;;;;;6.07;2.75;;;;;;;8.89;57.61;100989.53;4992409;28;20184;-73
2023/04/26 07:55:06;;;;;;;3.47;2.15;;;;;;;9.08;57.73;100991.63;4993374;28;20212;-74
2023/04/26 07:57:40;;;;;;;14.23;3.97;;;;;;;9.31;55.98;100991.47;4991881;28;20608;-72
2023/04/26 08:00:11;;;;;;;11.45;2.42;;;;;;;9.42;55.60;100982.88;4999823;28;20685;-71
2023/04/26 08:02:42;;;;;;;5.80;2.58;;;;;;;9.41;56.11;100992.00;4991761;28;20197;-71
2023/04/26 08:05:13;;;;;;;5.70;2.00;;;;;;;9.31;56.55;100988.75;4992110;28;20191;-71
2023/04/26 08:07:43;;;;;;;5.43;1.88;;;;;;;8.93;57.30;100998.91;4990086;28;20197;-73
2023/04/26 08:10:40;;;;;;;8.63;1.80;;;;;;;8.21;57.85;100994.19;4995028;28;20250;-74
2023/04/26 08:13:09;;;;;;;10.75;2.05;;;;;;;8.59;58.65;100994.13;4993445;28;20208;-72
2023/04/26 08:15:38;;;;;;;4.63;2.40;;;;;;;8.74;57.95;100997.66;4994171;28;20204;-72
2023/04/26 08:18:09;;;;;;;5.70;1.75;;;;;;;8.85;58.42;100990.94;4991718;28;20188;-73
2023/04/26 08:20:39;;;;;;;7.28;3.08;;;;;;;8.97;57.28;100997.50;5000859;28;20604;-71
2023/04/26 08:23:08;;;;;;;7.22;2.50;;;;;;;8.93;56.28;100999.75;4997931;28;20235;-70
2023/04/26 08:25:37;;;;;;;7.65;2.70;;;;;;;9.06;54.82;100994.50;4990579;28;20873;-71
2023/04/26 08:28:07;;;;;;;9.35;1.65;;;;;;;9.43;54.33;101006.16;4992216;28;20256;-70
2023/04/26 08:30:36;;;;;;;5.28;2.50;;;;;;;9.90;53.42;100998.28;4989728;28;20207;-71
2023/04/26 08:33:06;;;;;;;7.68;2.70;;;;;;;10.17;51.77;100995.78;4990484;28;20204;-73
2023/04/26 08:35:37;;;;;;;3.92;2.00;;;;;;;9.94;51.78;101004.97;4990453;28;20204;-71
2023/04/26 08:38:06;;;;;;;6.97;1.88;;;;;;;10.07;51.47;100996.09;4990703;28;20356;-70
2023/04/26 08:40:36;;;;;;;7.00;2.17;;;;;;;9.98;51.30;101000.84;4990512;28;20235;-70
2023/04/26 08:43:05;;;;;;;4.85;2.00;;;;;;;10.47;52.54;101010.78;4993575;28;20216;-72
2023/04/26 08:45:38;;;;;;;3.80;2.53;;;;;;;9.89;54.69;100996.59;4992033;28;20240;-70
2023/04/26 08:48:16;;;;;;;7.33;2.40;;;;;;;9.73;55.65;100999.56;4993418;28;20804;-72
2023/04/26 08:50:48;;;;;;;5.18;2.33;;;;;;;9.81;54.76;101002.16;4995270;28;20394;-72
2023/04/26 08:53:17;;;;;;;8.30;3.30;;;;;;;10.07;52.42;101006.13;4993221;28;20236;-70
2023/04/26 08:55:49;;;;;;;4.43;2.28;;;;;;;9.87;51.48;100998.69;4996720;28;20495;-69
2023/04/26 08:58:18;;;;;;;3.42;1.77;;;;;;;9.85;51.65;101010.69;4995564;28;20216;-74
2023/04/26 09:00:51;;;;;;;6.10;2.20;;;;;;;9.47;52.56;101004.72;4995143;28;20732;-72
2023/04/26 09:03:25;;;;;;;6.47;1.55;;;;;;;9.26;53.20;101004.69;5006068;28;20511;-70
2023/04/26 09:05:56;;;;;;;4.10;1.83;;;;;;;9.12;53.91;101012.66;4995781;28;20368;-73
2023/04/26 09:08:27;;;;;;;8.18;2.17;;;;;;;8.74;52.84;101016.53;4993706;28;20818;-73
2023/04/26 09:10:56;;;;;;;2.38;1.70;;;;;;;8.58;53.68;101012.16;4995399;28;20247;-70
2023/04/26 09:13:29;;;;;;;4.50;1.90;;;;;;;8.36;54.01;101013.09;4993726;28;20223;-73
2023/04/26 09:15:58;;;;;;;4.20;3.20;;;;;;;8.64;55.18;101021.38;4994875;28;20552;-71
2023/04/26 09:18:32;;;;;;;5.90;1.80;;;;;;;9.01;53.40;101010.44;4993543;28;20196;-71
2023/04/26 09:21:08;;;;;;;4.05;3.47;;;;;;;9.50;52.09;101007.88;4993439;28;20197;-72
2023/04/26 09:23:56;;;;;;;8.93;1.77;;;;;;;9.88;51.30;101007.59;4996040;28;20212;-72
2023/04/26 09:26:25;;;;;;;4.75;1.42;;;;;;;9.78;51.27;101007.94;4992470;28;20195;-71
2023/04/26 09:29:13;;;;;;;8.95;2.13;;;;;;;9.69;50.98;101006.41;4991889;28;20210;-73
2023/04/26 09:31:44;;;;;;;6.35;2.97;;;;;;;8.78;53.73;101006.19;4991496;28;20220;-71
2023/04/26 09:34:17;;;;;;;10.05;1.75;;;;;;;8.70;52.63;101017.94;4992704;28;20215;-72
2023/04/26 09:36:54;;;;;;;3.83;1.52;;;;;;;8.59;53.23;101013.00;4993441;28;20206;-72
2023/04/26 09:39:36;;;;;;;3.85;1.75;;;;;;;8.80;53.27;101010.41;4992728;28;20502;-74
2023/04/26 09:42:20;;;;;;;5.40;1.95;;;;;;;9.01;51.33;101007.75;4994349;28;20731;-72
2023/04/26 09:44:50;;;;;;;3.60;2.05;;;;;;;9.33;51.38;101006.47;4993985;28;20224;-71
2023/04/26 09:47:23;;;;;;;5.30;2.35;;;;;;;9.04;52.31;101023.56;4992387;28;20231;-70
2023/04/26 09:49:52;;;;;;;3.80;1.92;;;;;;;8.82;52.72;101005.63;4995037;28;20396;-74
2023/04/26 09:52:23;;;;;;;7.47;2.30;;;;;;;8.88;53.19;101012.13;4993445;28;20216;-71
2023/04/26 09:54:54;;;;;;;6.13;1.75;;;;;;;9.11;52.82;101008.28;4995833;28;20220;-71
2023/04/26 09:57:23;;;;;;;9.55;1.95;;;;;;;9.46;52.35;101005.75;4994805;28;20255;-72
2023/04/26 09:59:55;;;;;;;10.90;6.38;;;;;;;9.16;52.74;101011.25;4993510;28;20202;-71
2023/04/26 10:02:27;;;;;;;7.93;5.78;;;;;;;9.25;52.39;101014.66;4993969;28;20205;-72
2023/04/26 10:04:58;;;;;;;6.55;2.15;;;;;;;9.32;51.54;101017.44;4992660;28;20213;-72
2023/04/26 10:07:30;;;;;;;4.10;1.55;;;;;;;9.25;52.07;101014.66;4995037;28;20222;-72
2023/04/26 10:10:00;;;;;;;8.73;2.03;;;;;;;9.56;50.76;101033.28;4992887;28;20578;-73
2023/04/26 10:12:29;;;;;;;6.45;2.17;;;;;;;8.91;48.96;101018.00;4996295;28;20200;-71
2023/04/26 10:15:00;;;;;;;8.98;1.90;;;;;;;8.95;49.11;101018.47;4992806;28;20236;-73
2023/04/26 10:17:31;;;;;;;5.60;1.75;;;;;;;8.98;49.75;101012.69;4993490;28;20225;-73
2023/04/26 10:20:04;;;;;;;6.00;1.95;;;;;;;9.45;49.61;101017.56;4992714;28;20284;-73
2023/04/26 10:22:40;;;;;;;3.45;1.90;;;;;;;10.14;48.36;101020.50;4992244;28;20279;-73
2023/04/26 10:25:10;;;;;;;4.82;1.73;;;;;;;9.74;49.49;101025.56;4992233;28;20266;-69
2023/04/26 10:27:57;;;;;;;5.55;2.40;;;;;;;9.28;50.12;101024.25;4992773;28;20211;-70
2023/04/26 10:30:26;;;;;;;4.97;3.38;;;;;;;9.45;50.23;101029.22;4992592;28;20200;-70
2023/04/26 10:33:24;;;;;;;5.70;2.17;;;;;;;9.41;49.65;101040.59;4993800;28;20217;-73
2023/04/26 10:36:12;;;;;;;5.07;2.00;;;;;;;8.72;51.40;101021.28;4992087;28;20199;-70
2023/04/26 10:38:58;;;;;;;7.00;2.67;;;;;;;9.21;51.30;101024.19;4993292;28;20247;-71
2023/04/26 10:41:33;;;;;;;3.78;1.88;;;;;;;9.76;50.50;101020.81;4995848;28;20202;-73
2023/04/26 10:44:39;;;;;;;4.90;2.50;;;;;;;10.23;49.74;101024.78;4995579;28;20306;-73
2023/04/26 10:47:21;;;;;;;6.88;2.50;;;;;;;9.99;49.36;101020.59;4994464;28;20600;-72
2023/04/26 10:49:50;;;;;;;4.15;2.90;;;;;;;10.35;48.71;101024.03;4998374;28;20222;-72
2023/04/26 10:52:21;;;;;;;5.43;2.10;;;;;;;10.12;48.74;101007.19;4999592;28;20606;-74
2023/04/26 10:54:56;;;;;;;5.50;2.03;;;;;;;10.53;48.05;101020.81;4997206;28;20210;-73
2023/04/26 10:57:51;;;;;;;5.37;2.83;;;;;;;10.43;48.08;101020.34;5004058;28;20857;-72
2023/04/26 11:00:30;;;;;;;6.33;2.40;;;;;;;10.29;47.02;101013.16;5007374;28;20445;-73
2023/04/26 11:03:05;;;;;;;4.73;2.20;;;;;;;10.43;47.35;101026.59;5001051;28;20437;-73
2023/04/26 11:05:54;;;;;;;5.23;2.67;;;;;;;10.19;47.60;101028.91;4998829;28;20889;-73
2023/04/26 11:08:27;;;;;;;5.47;3.20;;;;;;;10.25;46.53;101025.41;4999232;28;20426;-71
2023/04/26 11:11:08;;;;;;;8.93;3.03;;;;;;;10.20;46.87;101019.75;4999594;28;20524;-72
2023/04/26 11:13:39;;;;;;;3.50;2.73;;;;;;;10.15;46.77;101028.44;5005102;28;20539;-72
2023/04/26 11:16:11;;;;;;;8.03;3.13;;;;;;;10.39;46.77;101019.06;4998276;28;20411;-71
2023/04/26 11:19:09;;;;;;;5.40;3.00;;;;;;;10.59;44.10;101024.59;4998916;28;20493;-73
2023/04/26 11:21:38;;;;;;;8.30;3.20;;;;;;;10.20;44.75;101020.59;4994401;28;20415;-71
2023/04/26 11:24:08;;;;;;;6.37;2.80;;;;;;;10.36;44.71;101016.78;4994822;28;20949;-70
2023/04/26 11:26:37;;;;;;;7.90;4.00;;;;;;;11.00;44.19;101016.47;4995338;28;20473;-72
2023/04/26 11:29:12;;;;;;;8.03;3.10;;;;;;;11.06;44.26;101010.25;4991664;28;20409;-73
2023/04/26 11:31:41;;;;;;;8.70;3.27;;;;;;;11.10;44.17;101025.06;4992016;28;20463;-72
2023/04/26 11:34:10;;;;;;;2.60;2.37;;;;;;;10.80;42.67;101033.47;4992221;28;20519;-71
2023/04/26 11:36:39;;;;;;;8.90;4.77;;;;;;;10.44;43.69;101016.59;4992632;28;20424;-71
2023/04/26 11:39:12;;;;;;;6.20;2.47;;;;;;;10.41;43.41;101022.41;4992411;28;20413;-73
2023/04/26 11:41:42;;;;;;;4.37;2.57;;;;;;;10.08;43.81;101021.28;4998603;28;20523;-72
2023/04/26 11:44:13;;;;;;;6.93;2.73;;;;;;;10.66;44.10;101015.47;4996613;28;20447;-74
2023/04/26 11:46:43;;;;;;;6.97;3.70;;;;;;;10.70;44.01;101022.16;4997984;28;20468;-73
2023/04/26 11:49:12;;;;;;;8.53;3.23;;;;;;;11.05;44.20;101022.13;4995634;28;20511;-71
2023/04/26 11:51:42;;;;;;;10.10;3.30;;;;;;;11.08;41.70;101027.16;5000536;28;21092;-70
2023/04/26 11:54:28;;;;;;;6.07;2.93;;;;;;;11.60;41.52;101013.75;4999608;28;20455;-72
2023/04/26 11:56:58;;;;;;;6.33;2.70;;;;;;;12.04;40.63;101009.66;4996470;28;20437;-74